sensor_id;sensor_type;location;lat;lon;timestamp;P1;durP1;ratioP1;P2;durP2;ratioP2
12171;SDS011;6149;52.418;13.668;2023-01-10T00:00:03;4.30;;;2.60;;
12171;SDS011;6149;52.418;13.668;2023-01-10T00:02:33;4.83;;;2.60;;
12171;SDS011;6149;52.418;13.668;2023-01-10T00:05:00;3.00;;;2.30;;
12171;SDS011;6149;52.418;13.668;2023-01-10T00:07:26;4.07;;;2.27;;
12171;SDS011;6149;52.418;13.668;2023-01-10T00:09:53;3.27;;;2.37;;
12171;SDS011;6149;52.418;13.668;2023-01-10T00:12:19;2.53;;;2.27;;
12171;SDS011;6149;52.418;13.668;2023-01-10T00:15:04;2.67;;;2.30;;
12171;SDS011;6149;52.418;13.668;2023-01-10T00:17:33;4.67;;;2.53;;
12171;SDS011;6149;52.418;13.668;2023-01-10T00:20:00;4.63;;;2.67;;
12171;SDS011;6149;52.418;13.668;2023-01-10T00:22:26;2.40;;;2.20;;
12171;SDS011;6149;52.418;13.668;2023-01-10T00:24:53;2.70;;;2.23;;
12171;SDS011;6149;52.418;13.668;2023-01-10T00:27:19;5.40;;;2.30;;
12171;SDS011;6149;52.418;13.668;2023-01-10T00:29:47;3.37;;;2.50;;
12171;SDS011;6149;52.418;13.668;2023-01-10T00:32:16;6.50;;;2.67;;
12171;SDS011;6149;52.418;13.668;2023-01-10T00:34:44;5.23;;;2.77;;
12171;SDS011;6149;52.418;13.668;2023-01-10T00:37:10;4.70;;;2.80;;
12171;SDS011;6149;52.418;13.668;2023-01-10T00:39:37;3.97;;;2.73;;
12171;SDS011;6149;52.418;13.668;2023-01-10T00:42:04;4.13;;;2.80;;
12171;SDS011;6149;52.418;13.668;2023-01-10T00:44:48;5.27;;;3.40;;
12171;SDS011;6149;52.418;13.668;2023-01-10T00:47:15;4.30;;;2.97;;
12171;SDS011;6149;52.418;13.668;2023-01-10T00:49:44;5.47;;;3.47;;
12171;SDS011;6149;52.418;13.668;2023-01-10T00:52:10;4.57;;;2.87;;
12171;SDS011;6149;52.418;13.668;2023-01-10T00:54:37;5.37;;;3.03;;
12171;SDS011;6149;52.418;13.668;2023-01-10T00:57:04;5.87;;;2.70;;
12171;SDS011;6149;52.418;13.668;2023-01-10T00:59:30;4.93;;;3.10;;
12171;SDS011;6149;52.418;13.668;2023-01-10T01:01:57;3.77;;;2.80;;
12171;SDS011;6149;52.418;13.668;2023-01-10T01:04:24;3.67;;;2.80;;
12171;SDS011;6149;52.418;13.668;2023-01-10T01:06:52;5.57;;;2.93;;
12171;SDS011;6149;52.418;13.668;2023-01-10T01:09:19;5.00;;;3.23;;
12171;SDS011;6149;52.418;13.668;2023-01-10T01:11:45;4.87;;;3.40;;
12171;SDS011;6149;52.418;13.668;2023-01-10T01:14:12;5.17;;;3.07;;
12171;SDS011;6149;52.418;13.668;2023-01-10T01:16:38;3.87;;;3.03;;
12171;SDS011;6149;52.418;13.668;2023-01-10T01:19:05;3.33;;;2.87;;
12171;SDS011;6149;52.418;13.668;2023-01-10T01:21:31;5.53;;;3.03;;
12171;SDS011;6149;52.418;13.668;2023-01-10T01:23:59;4.53;;;3.20;;
12171;SDS011;6149;52.418;13.668;2023-01-10T01:26:26;5.67;;;3.17;;
12171;SDS011;6149;52.418;13.668;2023-01-10T01:28:56;4.50;;;3.13;;
12171;SDS011;6149;52.418;13.668;2023-01-10T01:31:23;3.47;;;3.17;;
12171;SDS011;6149;52.418;13.668;2023-01-10T01:33:50;5.30;;;3.43;;
12171;SDS011;6149;52.418;13.668;2023-01-10T01:36:16;5.27;;;3.40;;
12171;SDS011;6149;52.418;13.668;2023-01-10T01:38:44;4.67;;;3.20;;
12171;SDS011;6149;52.418;13.668;2023-01-10T01:41:12;5.43;;;3.33;;
12171;SDS011;6149;52.418;13.668;2023-01-10T01:44:00;4.83;;;3.30;;
12171;SDS011;6149;52.418;13.668;2023-01-10T01:46:29;5.80;;;3.43;;
12171;SDS011;6149;52.418;13.668;2023-01-10T01:48:59;4.40;;;3.27;;
12171;SDS011;6149;52.418;13.668;2023-01-10T01:51:30;4.00;;;3.40;;
12171;SDS011;6149;52.418;13.668;2023-01-10T01:53:58;6.27;;;3.93;;
12171;SDS011;6149;52.418;13.668;2023-01-10T01:56:29;7.50;;;3.60;;
12171;SDS011;6149;52.418;13.668;2023-01-10T01:59:04;4.30;;;3.47;;
12171;SDS011;6149;52.418;13.668;2023-01-10T02:01:37;7.30;;;3.70;;
12171;SDS011;6149;52.418;13.668;2023-01-10T02:04:09;4.70;;;3.50;;
12171;SDS011;6149;52.418;13.668;2023-01-10T02:06:39;5.07;;;3.20;;
12171;SDS011;6149;52.418;13.668;2023-01-10T02:09:07;5.00;;;3.80;;
12171;SDS011;6149;52.418;13.668;2023-01-10T02:11:42;6.13;;;3.70;;
12171;SDS011;6149;52.418;13.668;2023-01-10T02:14:09;5.20;;;3.57;;
12171;SDS011;6149;52.418;13.668;2023-01-10T02:16:37;5.17;;;3.53;;
12171;SDS011;6149;52.418;13.668;2023-01-10T02:19:04;6.50;;;3.83;;
12171;SDS011;6149;52.418;13.668;2023-01-10T02:28:27;5.20;;;4.23;;
12171;SDS011;6149;52.418;13.668;2023-01-10T02:31:35;5.77;;;3.43;;
12171;SDS011;6149;52.418;13.668;2023-01-10T02:34:33;7.47;;;3.90;;
12171;SDS011;6149;52.418;13.668;2023-01-10T02:37:15;5.63;;;3.57;;
12171;SDS011;6149;52.418;13.668;2023-01-10T02:39:54;4.97;;;3.67;;
12171;SDS011;6149;52.418;13.668;2023-01-10T02:42:26;5.77;;;4.00;;
12171;SDS011;6149;52.418;13.668;2023-01-10T02:45:01;5.37;;;3.70;;
12171;SDS011;6149;52.418;13.668;2023-01-10T02:47:35;6.83;;;4.10;;
12171;SDS011;6149;52.418;13.668;2023-01-10T02:50:21;6.57;;;4.17;;
12171;SDS011;6149;52.418;13.668;2023-01-10T02:52:55;6.37;;;4.40;;
12171;SDS011;6149;52.418;13.668;2023-01-10T02:55:27;8.73;;;4.83;;
12171;SDS011;6149;52.418;13.668;2023-01-10T02:58:08;5.20;;;4.00;;
12171;SDS011;6149;52.418;13.668;2023-01-10T03:00:48;6.03;;;3.93;;
12171;SDS011;6149;52.418;13.668;2023-01-10T03:03:32;7.63;;;4.23;;
12171;SDS011;6149;52.418;13.668;2023-01-10T03:06:10;6.53;;;3.87;;
12171;SDS011;6149;52.418;13.668;2023-01-10T03:08:48;6.53;;;4.17;;
12171;SDS011;6149;52.418;13.668;2023-01-10T03:11:19;7.37;;;4.03;;
12171;SDS011;6149;52.418;13.668;2023-01-10T03:14:05;5.37;;;3.80;;
12171;SDS011;6149;52.418;13.668;2023-01-10T03:16:37;6.70;;;3.60;;
12171;SDS011;6149;52.418;13.668;2023-01-10T03:19:11;5.10;;;3.80;;
12171;SDS011;6149;52.418;13.668;2023-01-10T03:21:42;5.77;;;3.80;;
12171;SDS011;6149;52.418;13.668;2023-01-10T03:24:10;8.43;;;3.73;;
12171;SDS011;6149;52.418;13.668;2023-01-10T03:26:43;7.60;;;4.20;;
12171;SDS011;6149;52.418;13.668;2023-01-10T03:29:18;8.07;;;3.93;;
12171;SDS011;6149;52.418;13.668;2023-01-10T03:31:52;5.40;;;3.20;;
12171;SDS011;6149;52.418;13.668;2023-01-10T03:34:24;5.77;;;3.60;;
12171;SDS011;6149;52.418;13.668;2023-01-10T03:36:52;8.43;;;3.57;;
12171;SDS011;6149;52.418;13.668;2023-01-10T03:39:29;6.40;;;3.30;;
12171;SDS011;6149;52.418;13.668;2023-01-10T03:42:04;6.57;;;3.67;;
12171;SDS011;6149;52.418;13.668;2023-01-10T03:44:37;5.27;;;3.87;;
12171;SDS011;6149;52.418;13.668;2023-01-10T03:47:12;5.73;;;3.70;;
12171;SDS011;6149;52.418;13.668;2023-01-10T03:49:53;6.03;;;4.30;;
12171;SDS011;6149;52.418;13.668;2023-01-10T03:52:24;7.93;;;4.97;;
12171;SDS011;6149;52.418;13.668;2023-01-10T03:54:52;7.17;;;4.60;;
12171;SDS011;6149;52.418;13.668;2023-01-10T03:57:20;7.23;;;4.57;;
12171;SDS011;6149;52.418;13.668;2023-01-10T03:59:49;10.67;;;5.40;;
12171;SDS011;6149;52.418;13.668;2023-01-10T04:02:18;12.00;;;5.27;;
12171;SDS011;6149;52.418;13.668;2023-01-10T04:04:45;6.60;;;4.40;;
12171;SDS011;6149;52.418;13.668;2023-01-10T04:07:13;7.43;;;5.33;;
12171;SDS011;6149;52.418;13.668;2023-01-10T04:09:39;10.57;;;5.83;;
12171;SDS011;6149;52.418;13.668;2023-01-10T04:12:06;9.47;;;5.70;;
12171;SDS011;6149;52.418;13.668;2023-01-10T04:14:32;9.83;;;5.57;;
12171;SDS011;6149;52.418;13.668;2023-01-10T04:16:59;8.97;;;5.27;;
12171;SDS011;6149;52.418;13.668;2023-01-10T04:19:26;10.53;;;5.57;;
12171;SDS011;6149;52.418;13.668;2023-01-10T04:21:53;13.27;;;5.83;;
12171;SDS011;6149;52.418;13.668;2023-01-10T04:24:21;10.07;;;6.00;;
12171;SDS011;6149;52.418;13.668;2023-01-10T04:26:48;10.47;;;5.57;;
12171;SDS011;6149;52.418;13.668;2023-01-10T04:29:15;10.23;;;6.17;;
12171;SDS011;6149;52.418;13.668;2023-01-10T04:31:41;8.13;;;5.53;;
12171;SDS011;6149;52.418;13.668;2023-01-10T04:34:08;12.40;;;6.03;;
12171;SDS011;6149;52.418;13.668;2023-01-10T04:36:35;11.27;;;7.03;;
12171;SDS011;6149;52.418;13.668;2023-01-10T04:39:01;11.83;;;6.60;;
12171;SDS011;6149;52.418;13.668;2023-01-10T04:41:29;12.17;;;6.10;;
12171;SDS011;6149;52.418;13.668;2023-01-10T04:43:59;13.17;;;6.67;;
12171;SDS011;6149;52.418;13.668;2023-01-10T04:46:26;14.97;;;6.27;;
12171;SDS011;6149;52.418;13.668;2023-01-10T04:48:52;9.90;;;6.80;;
12171;SDS011;6149;52.418;13.668;2023-01-10T04:51:19;11.57;;;6.67;;
12171;SDS011;6149;52.418;13.668;2023-01-10T04:53:46;13.30;;;6.50;;
12171;SDS011;6149;52.418;13.668;2023-01-10T04:56:14;9.90;;;6.03;;
12171;SDS011;6149;52.418;13.668;2023-01-10T04:58:45;11.23;;;7.07;;
12171;SDS011;6149;52.418;13.668;2023-01-10T05:01:13;10.77;;;7.20;;
12171;SDS011;6149;52.418;13.668;2023-01-10T05:03:42;16.37;;;6.93;;
12171;SDS011;6149;52.418;13.668;2023-01-10T05:06:09;15.40;;;7.70;;
12171;SDS011;6149;52.418;13.668;2023-01-10T05:08:35;12.10;;;6.20;;
12171;SDS011;6149;52.418;13.668;2023-01-10T05:11:02;11.30;;;6.70;;
12171;SDS011;6149;52.418;13.668;2023-01-10T05:13:29;14.23;;;6.90;;
12171;SDS011;6149;52.418;13.668;2023-01-10T05:15:57;14.10;;;6.20;;
12171;SDS011;6149;52.418;13.668;2023-01-10T05:18:24;12.00;;;7.03;;
12171;SDS011;6149;52.418;13.668;2023-01-10T05:20:51;9.97;;;6.37;;
12171;SDS011;6149;52.418;13.668;2023-01-10T05:23:18;12.40;;;6.67;;
12171;SDS011;6149;52.418;13.668;2023-01-10T05:25:45;13.00;;;6.43;;
12171;SDS011;6149;52.418;13.668;2023-01-10T05:28:12;14.50;;;6.07;;
12171;SDS011;6149;52.418;13.668;2023-01-10T05:30:38;12.77;;;6.67;;
12171;SDS011;6149;52.418;13.668;2023-01-10T05:33:06;11.23;;;6.70;;
12171;SDS011;6149;52.418;13.668;2023-01-10T05:35:32;12.23;;;6.57;;
12171;SDS011;6149;52.418;13.668;2023-01-10T05:37:59;12.80;;;6.73;;
12171;SDS011;6149;52.418;13.668;2023-01-10T05:40:26;14.47;;;6.40;;
12171;SDS011;6149;52.418;13.668;2023-01-10T05:42:53;11.90;;;6.83;;
12171;SDS011;6149;52.418;13.668;2023-01-10T05:45:19;11.87;;;6.77;;
12171;SDS011;6149;52.418;13.668;2023-01-10T05:47:49;13.97;;;7.23;;
12171;SDS011;6149;52.418;13.668;2023-01-10T05:50:17;14.00;;;6.73;;
12171;SDS011;6149;52.418;13.668;2023-01-10T05:52:44;14.33;;;7.23;;
12171;SDS011;6149;52.418;13.668;2023-01-10T05:55:10;17.53;;;7.43;;
12171;SDS011;6149;52.418;13.668;2023-01-10T05:57:37;12.80;;;7.40;;
12171;SDS011;6149;52.418;13.668;2023-01-10T06:00:04;15.43;;;7.83;;
12171;SDS011;6149;52.418;13.668;2023-01-10T06:02:32;13.83;;;7.47;;
12171;SDS011;6149;52.418;13.668;2023-01-10T06:04:58;17.97;;;7.67;;
12171;SDS011;6149;52.418;13.668;2023-01-10T06:07:27;16.03;;;7.70;;
12171;SDS011;6149;52.418;13.668;2023-01-10T06:09:53;14.43;;;7.40;;
12171;SDS011;6149;52.418;13.668;2023-01-10T06:12:20;15.00;;;7.27;;
12171;SDS011;6149;52.418;13.668;2023-01-10T06:14:46;19.07;;;8.60;;
12171;SDS011;6149;52.418;13.668;2023-01-10T06:17:13;17.60;;;8.07;;
12171;SDS011;6149;52.418;13.668;2023-01-10T06:19:39;13.20;;;7.80;;
12171;SDS011;6149;52.418;13.668;2023-01-10T06:22:06;15.70;;;7.33;;
12171;SDS011;6149;52.418;13.668;2023-01-10T06:24:34;17.10;;;8.40;;
12171;SDS011;6149;52.418;13.668;2023-01-10T06:27:00;15.93;;;8.60;;
12171;SDS011;6149;52.418;13.668;2023-01-10T06:29:27;18.90;;;8.50;;
12171;SDS011;6149;52.418;13.668;2023-01-10T06:31:54;16.50;;;7.93;;
12171;SDS011;6149;52.418;13.668;2023-01-10T06:34:20;17.60;;;8.77;;
12171;SDS011;6149;52.418;13.668;2023-01-10T06:36:47;21.63;;;11.97;;
12171;SDS011;6149;52.418;13.668;2023-01-10T06:39:14;30.97;;;14.73;;
12171;SDS011;6149;52.418;13.668;2023-01-10T06:41:41;26.13;;;13.17;;
12171;SDS011;6149;52.418;13.668;2023-01-10T06:44:08;23.27;;;10.10;;
12171;SDS011;6149;52.418;13.668;2023-01-10T06:46:35;22.90;;;9.90;;
12171;SDS011;6149;52.418;13.668;2023-01-10T06:49:02;18.13;;;11.03;;
12171;SDS011;6149;52.418;13.668;2023-01-10T06:51:30;19.97;;;9.63;;
12171;SDS011;6149;52.418;13.668;2023-01-10T06:53:57;19.47;;;9.90;;
12171;SDS011;6149;52.418;13.668;2023-01-10T06:56:24;18.07;;;10.43;;
12171;SDS011;6149;52.418;13.668;2023-01-10T06:58:51;16.57;;;9.47;;
12171;SDS011;6149;52.418;13.668;2023-01-10T07:01:19;17.87;;;9.07;;
12171;SDS011;6149;52.418;13.668;2023-01-10T07:03:46;14.63;;;8.27;;
12171;SDS011;6149;52.418;13.668;2023-01-10T07:06:13;19.17;;;8.97;;
12171;SDS011;6149;52.418;13.668;2023-01-10T07:08:40;18.30;;;8.87;;
12171;SDS011;6149;52.418;13.668;2023-01-10T07:11:09;18.67;;;8.60;;
12171;SDS011;6149;52.418;13.668;2023-01-10T07:13:37;15.03;;;8.27;;
12171;SDS011;6149;52.418;13.668;2023-01-10T07:16:06;18.33;;;9.30;;
12171;SDS011;6149;52.418;13.668;2023-01-10T07:18:37;18.83;;;9.97;;
12171;SDS011;6149;52.418;13.668;2023-01-10T07:21:06;18.27;;;8.93;;
12171;SDS011;6149;52.418;13.668;2023-01-10T07:23:33;21.33;;;8.67;;
12171;SDS011;6149;52.418;13.668;2023-01-10T07:26:01;18.87;;;9.43;;
12171;SDS011;6149;52.418;13.668;2023-01-10T07:28:29;16.10;;;8.40;;
12171;SDS011;6149;52.418;13.668;2023-01-10T07:30:58;19.27;;;9.33;;
12171;SDS011;6149;52.418;13.668;2023-01-10T07:33:27;19.33;;;9.73;;
12171;SDS011;6149;52.418;13.668;2023-01-10T07:35:55;19.23;;;8.90;;
12171;SDS011;6149;52.418;13.668;2023-01-10T07:38:22;18.13;;;8.63;;
12171;SDS011;6149;52.418;13.668;2023-01-10T07:40:49;17.83;;;9.10;;
12171;SDS011;6149;52.418;13.668;2023-01-10T07:43:16;16.47;;;8.70;;
12171;SDS011;6149;52.418;13.668;2023-01-10T07:45:42;18.07;;;8.80;;
12171;SDS011;6149;52.418;13.668;2023-01-10T07:48:09;15.33;;;8.70;;
12171;SDS011;6149;52.418;13.668;2023-01-10T07:50:37;17.33;;;8.77;;
12171;SDS011;6149;52.418;13.668;2023-01-10T07:53:04;19.47;;;8.90;;
12171;SDS011;6149;52.418;13.668;2023-01-10T07:55:32;14.10;;;8.53;;
12171;SDS011;6149;52.418;13.668;2023-01-10T07:58:03;15.43;;;8.10;;
12171;SDS011;6149;52.418;13.668;2023-01-10T08:00:32;16.40;;;8.27;;
12171;SDS011;6149;52.418;13.668;2023-01-10T08:02:58;17.73;;;9.40;;
12171;SDS011;6149;52.418;13.668;2023-01-10T08:05:25;20.80;;;10.60;;
12171;SDS011;6149;52.418;13.668;2023-01-10T08:07:53;26.73;;;11.93;;
12171;SDS011;6149;52.418;13.668;2023-01-10T08:10:23;20.13;;;10.87;;
12171;SDS011;6149;52.418;13.668;2023-01-10T08:12:51;20.77;;;11.20;;
12171;SDS011;6149;52.418;13.668;2023-01-10T08:15:17;35.77;;;18.47;;
12171;SDS011;6149;52.418;13.668;2023-01-10T08:17:44;32.40;;;18.90;;
12171;SDS011;6149;52.418;13.668;2023-01-10T08:20:10;39.20;;;21.00;;
12171;SDS011;6149;52.418;13.668;2023-01-10T08:22:37;27.93;;;12.37;;
12171;SDS011;6149;52.418;13.668;2023-01-10T08:25:06;21.93;;;11.30;;
12171;SDS011;6149;52.418;13.668;2023-01-10T08:27:33;19.57;;;10.17;;
12171;SDS011;6149;52.418;13.668;2023-01-10T08:30:00;19.33;;;10.43;;
12171;SDS011;6149;52.418;13.668;2023-01-10T08:32:27;18.67;;;9.57;;
12171;SDS011;6149;52.418;13.668;2023-01-10T08:34:53;20.60;;;9.97;;
12171;SDS011;6149;52.418;13.668;2023-01-10T08:37:20;19.60;;;10.07;;
12171;SDS011;6149;52.418;13.668;2023-01-10T08:39:47;19.87;;;9.50;;
12171;SDS011;6149;52.418;13.668;2023-01-10T08:42:15;16.00;;;9.93;;
12171;SDS011;6149;52.418;13.668;2023-01-10T08:44:42;23.07;;;10.83;;
12171;SDS011;6149;52.418;13.668;2023-01-10T08:47:09;16.97;;;9.93;;
12171;SDS011;6149;52.418;13.668;2023-01-10T08:49:36;16.67;;;8.57;;
12171;SDS011;6149;52.418;13.668;2023-01-10T08:52:02;12.37;;;8.90;;
12171;SDS011;6149;52.418;13.668;2023-01-10T08:54:30;15.50;;;9.07;;
12171;SDS011;6149;52.418;13.668;2023-01-10T08:56:57;14.97;;;8.80;;
12171;SDS011;6149;52.418;13.668;2023-01-10T08:59:25;17.43;;;9.30;;
12171;SDS011;6149;52.418;13.668;2023-01-10T09:01:52;18.57;;;9.30;;
12171;SDS011;6149;52.418;13.668;2023-01-10T09:04:21;15.83;;;9.20;;
12171;SDS011;6149;52.418;13.668;2023-01-10T09:06:52;17.20;;;9.00;;
12171;SDS011;6149;52.418;13.668;2023-01-10T09:09:19;14.53;;;8.23;;
12171;SDS011;6149;52.418;13.668;2023-01-10T09:11:47;14.37;;;8.87;;
12171;SDS011;6149;52.418;13.668;2023-01-10T09:14:13;16.83;;;8.87;;
12171;SDS011;6149;52.418;13.668;2023-01-10T09:16:42;16.77;;;8.83;;
12171;SDS011;6149;52.418;13.668;2023-01-10T09:19:08;15.97;;;8.30;;
12171;SDS011;6149;52.418;13.668;2023-01-10T09:21:35;16.27;;;8.77;;
12171;SDS011;6149;52.418;13.668;2023-01-10T09:24:02;21.33;;;9.20;;
12171;SDS011;6149;52.418;13.668;2023-01-10T09:26:29;18.13;;;9.40;;
12171;SDS011;6149;52.418;13.668;2023-01-10T09:28:56;18.23;;;9.43;;
12171;SDS011;6149;52.418;13.668;2023-01-10T09:31:22;16.77;;;8.97;;
12171;SDS011;6149;52.418;13.668;2023-01-10T09:33:50;14.70;;;8.83;;
12171;SDS011;6149;52.418;13.668;2023-01-10T09:36:17;16.87;;;9.17;;
12171;SDS011;6149;52.418;13.668;2023-01-10T09:38:44;14.20;;;9.00;;
12171;SDS011;6149;52.418;13.668;2023-01-10T09:41:15;16.23;;;9.20;;
12171;SDS011;6149;52.418;13.668;2023-01-10T09:43:58;16.50;;;9.33;;
12171;SDS011;6149;52.418;13.668;2023-01-10T09:46:33;18.87;;;8.83;;
12171;SDS011;6149;52.418;13.668;2023-01-10T09:49:14;15.40;;;8.80;;
12171;SDS011;6149;52.418;13.668;2023-01-10T09:51:52;14.43;;;7.97;;
12171;SDS011;6149;52.418;13.668;2023-01-10T09:54:22;16.57;;;6.90;;
12171;SDS011;6149;52.418;13.668;2023-01-10T09:56:54;13.80;;;7.30;;
12171;SDS011;6149;52.418;13.668;2023-01-10T09:59:22;13.83;;;7.10;;
12171;SDS011;6149;52.418;13.668;2023-01-10T10:01:52;14.37;;;6.90;;
12171;SDS011;6149;52.418;13.668;2023-01-10T10:04:28;11.97;;;6.57;;
12171;SDS011;6149;52.418;13.668;2023-01-10T10:07:01;11.73;;;6.13;;
12171;SDS011;6149;52.418;13.668;2023-01-10T10:09:30;10.93;;;6.00;;
12171;SDS011;6149;52.418;13.668;2023-01-10T10:12:03;15.07;;;6.40;;
12171;SDS011;6149;52.418;13.668;2023-01-10T10:14:51;15.73;;;6.70;;
12171;SDS011;6149;52.418;13.668;2023-01-10T10:17:32;14.97;;;6.33;;
12171;SDS011;6149;52.418;13.668;2023-01-10T10:20:17;12.13;;;6.07;;
12171;SDS011;6149;52.418;13.668;2023-01-10T10:22:56;10.67;;;6.03;;
12171;SDS011;6149;52.418;13.668;2023-01-10T10:25:56;12.80;;;6.07;;
12171;SDS011;6149;52.418;13.668;2023-01-10T10:28:34;9.40;;;6.00;;
12171;SDS011;6149;52.418;13.668;2023-01-10T10:31:25;10.73;;;5.87;;
12171;SDS011;6149;52.418;13.668;2023-01-10T10:34:08;12.40;;;5.80;;
12171;SDS011;6149;52.418;13.668;2023-01-10T10:36:41;10.30;;;5.53;;
12171;SDS011;6149;52.418;13.668;2023-01-10T10:39:13;13.90;;;5.60;;
12171;SDS011;6149;52.418;13.668;2023-01-10T10:41:45;12.23;;;5.90;;
12171;SDS011;6149;52.418;13.668;2023-01-10T10:44:21;14.10;;;5.43;;
12171;SDS011;6149;52.418;13.668;2023-01-10T10:46:58;10.07;;;5.10;;
12171;SDS011;6149;52.418;13.668;2023-01-10T10:49:29;11.73;;;5.33;;
12171;SDS011;6149;52.418;13.668;2023-01-10T10:52:06;8.47;;;5.40;;
12171;SDS011;6149;52.418;13.668;2023-01-10T10:54:39;13.97;;;5.40;;
12171;SDS011;6149;52.418;13.668;2023-01-10T10:57:06;12.50;;;5.43;;
12171;SDS011;6149;52.418;13.668;2023-01-10T10:59:35;11.27;;;5.27;;
12171;SDS011;6149;52.418;13.668;2023-01-10T11:02:01;17.33;;;5.83;;
12171;SDS011;6149;52.418;13.668;2023-01-10T11:04:29;9.70;;;5.63;;
12171;SDS011;6149;52.418;13.668;2023-01-10T11:06:56;16.33;;;5.70;;
12171;SDS011;6149;52.418;13.668;2023-01-10T11:09:25;13.50;;;5.80;;
12171;SDS011;6149;52.418;13.668;2023-01-10T11:11:55;13.43;;;5.77;;
12171;SDS011;6149;52.418;13.668;2023-01-10T11:14:39;11.60;;;6.00;;
12171;SDS011;6149;52.418;13.668;2023-01-10T11:17:16;16.60;;;5.73;;
12171;SDS011;6149;52.418;13.668;2023-01-10T11:19:56;14.03;;;6.23;;
12171;SDS011;6149;52.418;13.668;2023-01-10T11:22:25;11.50;;;5.47;;
12171;SDS011;6149;52.418;13.668;2023-01-10T11:24:56;13.93;;;6.10;;
12171;SDS011;6149;52.418;13.668;2023-01-10T11:27:26;9.97;;;5.50;;
12171;SDS011;6149;52.418;13.668;2023-01-10T11:29:57;11.57;;;5.50;;
12171;SDS011;6149;52.418;13.668;2023-01-10T11:32:30;11.97;;;5.73;;
12171;SDS011;6149;52.418;13.668;2023-01-10T11:35:00;12.27;;;6.03;;
12171;SDS011;6149;52.418;13.668;2023-01-10T11:37:32;10.97;;;5.23;;
12171;SDS011;6149;52.418;13.668;2023-01-10T11:40:12;13.10;;;6.43;;
12171;SDS011;6149;52.418;13.668;2023-01-10T11:42:48;9.63;;;4.93;;
12171;SDS011;6149;52.418;13.668;2023-01-10T11:45:23;12.53;;;6.10;;
12171;SDS011;6149;52.418;13.668;2023-01-10T11:47:58;11.47;;;6.07;;
12171;SDS011;6149;52.418;13.668;2023-01-10T11:50:32;9.53;;;6.03;;
12171;SDS011;6149;52.418;13.668;2023-01-10T11:53:02;15.03;;;6.53;;
12171;SDS011;6149;52.418;13.668;2023-01-10T11:55:34;11.90;;;5.20;;
12171;SDS011;6149;52.418;13.668;2023-01-10T11:58:04;10.97;;;5.13;;
12171;SDS011;6149;52.418;13.668;2023-01-10T12:00:34;15.17;;;4.67;;
12171;SDS011;6149;52.418;13.668;2023-01-10T12:03:19;12.70;;;5.10;;
12171;SDS011;6149;52.418;13.668;2023-01-10T12:05:51;10.87;;;4.43;;
12171;SDS011;6149;52.418;13.668;2023-01-10T12:08:24;10.47;;;4.53;;
12171;SDS011;6149;52.418;13.668;2023-01-10T12:10:56;13.30;;;5.27;;
12171;SDS011;6149;52.418;13.668;2023-01-10T12:13:27;15.70;;;5.20;;
12171;SDS011;6149;52.418;13.668;2023-01-10T12:16:14;13.30;;;4.63;;
12171;SDS011;6149;52.418;13.668;2023-01-10T12:18:46;12.90;;;4.30;;
12171;SDS011;6149;52.418;13.668;2023-01-10T12:21:15;13.83;;;4.27;;
12171;SDS011;6149;52.418;13.668;2023-01-10T12:23:50;8.17;;;3.87;;
12171;SDS011;6149;52.418;13.668;2023-01-10T12:26:21;10.43;;;3.80;;
12171;SDS011;6149;52.418;13.668;2023-01-10T12:28:49;11.00;;;4.43;;
12171;SDS011;6149;52.418;13.668;2023-01-10T12:31:21;10.70;;;4.13;;
12171;SDS011;6149;52.418;13.668;2023-01-10T12:33:50;7.70;;;3.53;;
12171;SDS011;6149;52.418;13.668;2023-01-10T12:36:38;10.40;;;3.90;;
12171;SDS011;6149;52.418;13.668;2023-01-10T12:39:14;10.43;;;3.70;;
12171;SDS011;6149;52.418;13.668;2023-01-10T12:42:00;8.80;;;3.83;;
12171;SDS011;6149;52.418;13.668;2023-01-10T12:44:57;12.03;;;3.43;;
12171;SDS011;6149;52.418;13.668;2023-01-10T12:47:29;13.10;;;4.10;;
12171;SDS011;6149;52.418;13.668;2023-01-10T12:50:03;14.37;;;3.77;;
12171;SDS011;6149;52.418;13.668;2023-01-10T12:52:38;12.20;;;4.03;;
12171;SDS011;6149;52.418;13.668;2023-01-10T12:57:41;11.37;;;3.67;;
12171;SDS011;6149;52.418;13.668;2023-01-10T13:00:14;9.60;;;3.13;;
12171;SDS011;6149;52.418;13.668;2023-01-10T13:02:48;10.20;;;3.43;;
12171;SDS011;6149;52.418;13.668;2023-01-10T13:05:19;11.37;;;4.00;;
12171;SDS011;6149;52.418;13.668;2023-01-10T13:07:49;9.97;;;3.60;;
12171;SDS011;6149;52.418;13.668;2023-01-10T13:10:20;7.90;;;3.30;;
12171;SDS011;6149;52.418;13.668;2023-01-10T13:12:50;9.70;;;3.30;;
12171;SDS011;6149;52.418;13.668;2023-01-10T13:15:23;13.03;;;4.23;;
12171;SDS011;6149;52.418;13.668;2023-01-10T13:17:57;10.67;;;4.00;;
12171;SDS011;6149;52.418;13.668;2023-01-10T13:20:28;8.67;;;3.80;;
12171;SDS011;6149;52.418;13.668;2023-01-10T13:23:11;10.03;;;3.47;;
12171;SDS011;6149;52.418;13.668;2023-01-10T13:25:58;8.93;;;3.80;;
12171;SDS011;6149;52.418;13.668;2023-01-10T13:28:31;11.00;;;3.47;;
12171;SDS011;6149;52.418;13.668;2023-01-10T13:31:01;9.97;;;3.23;;
12171;SDS011;6149;52.418;13.668;2023-01-10T13:33:31;8.33;;;2.93;;
12171;SDS011;6149;52.418;13.668;2023-01-10T13:36:08;8.70;;;2.80;;
12171;SDS011;6149;52.418;13.668;2023-01-10T13:38:43;8.80;;;3.30;;
12171;SDS011;6149;52.418;13.668;2023-01-10T13:41:15;6.33;;;3.20;;
12171;SDS011;6149;52.418;13.668;2023-01-10T13:44:08;8.73;;;2.90;;
12171;SDS011;6149;52.418;13.668;2023-01-10T13:46:41;8.17;;;2.80;;
12171;SDS011;6149;52.418;13.668;2023-01-10T13:52:19;6.60;;;3.10;;
12171;SDS011;6149;52.418;13.668;2023-01-10T13:57:59;7.60;;;3.07;;
12171;SDS011;6149;52.418;13.668;2023-01-10T14:00:43;9.30;;;2.73;;
12171;SDS011;6149;52.418;13.668;2023-01-10T14:03:37;10.50;;;2.60;;
12171;SDS011;6149;52.418;13.668;2023-01-10T14:06:08;9.63;;;2.93;;
12171;SDS011;6149;52.418;13.668;2023-01-10T14:08:40;10.93;;;3.20;;
12171;SDS011;6149;52.418;13.668;2023-01-10T14:11:15;9.17;;;2.80;;
12171;SDS011;6149;52.418;13.668;2023-01-10T14:13:45;5.30;;;2.70;;
12171;SDS011;6149;52.418;13.668;2023-01-10T14:16:29;8.50;;;2.60;;
12171;SDS011;6149;52.418;13.668;2023-01-10T14:19:02;6.50;;;2.63;;
12171;SDS011;6149;52.418;13.668;2023-01-10T14:21:34;6.87;;;2.53;;
12171;SDS011;6149;52.418;13.668;2023-01-10T14:24:14;7.70;;;2.50;;
12171;SDS011;6149;52.418;13.668;2023-01-10T14:26:50;7.17;;;2.50;;
12171;SDS011;6149;52.418;13.668;2023-01-10T14:29:19;7.23;;;2.20;;
12171;SDS011;6149;52.418;13.668;2023-01-10T14:31:48;8.23;;;2.30;;
12171;SDS011;6149;52.418;13.668;2023-01-10T14:34:19;10.60;;;2.77;;
12171;SDS011;6149;52.418;13.668;2023-01-10T14:36:51;9.50;;;2.67;;
12171;SDS011;6149;52.418;13.668;2023-01-10T14:39:24;6.03;;;2.87;;
12171;SDS011;6149;52.418;13.668;2023-01-10T14:41:52;7.03;;;2.27;;
12171;SDS011;6149;52.418;13.668;2023-01-10T14:44:25;12.43;;;3.13;;
12171;SDS011;6149;52.418;13.668;2023-01-10T14:46:58;10.40;;;3.50;;
12171;SDS011;6149;52.418;13.668;2023-01-10T14:49:27;9.93;;;3.10;;
12171;SDS011;6149;52.418;13.668;2023-01-10T14:52:10;7.20;;;2.60;;
12171;SDS011;6149;52.418;13.668;2023-01-10T14:54:43;10.87;;;3.10;;
12171;SDS011;6149;52.418;13.668;2023-01-10T14:57:14;12.13;;;4.23;;
12171;SDS011;6149;52.418;13.668;2023-01-10T14:59:43;12.17;;;3.73;;
12171;SDS011;6149;52.418;13.668;2023-01-10T15:02:14;11.60;;;3.70;;
12171;SDS011;6149;52.418;13.668;2023-01-10T15:04:49;7.67;;;3.23;;
12171;SDS011;6149;52.418;13.668;2023-01-10T15:07:19;10.83;;;4.37;;
12171;SDS011;6149;52.418;13.668;2023-01-10T15:09:48;10.43;;;5.17;;
12171;SDS011;6149;52.418;13.668;2023-01-10T15:12:16;10.00;;;5.50;;
12171;SDS011;6149;52.418;13.668;2023-01-10T15:14:45;8.83;;;4.10;;